sensor_id;sensor_type;location;lat;lon;timestamp;P1;durP1;ratioP1;P2;durP2;ratioP2
7193;SDS011;3638;48.820;9.244;2023-06-10T00:01:39;7.97;;;7.18;;
7193;SDS011;3638;48.820;9.244;2023-06-10T00:04:06;7.85;;;7.05;;
7193;SDS011;3638;48.820;9.244;2023-06-10T00:06:33;7.95;;;7.13;;
7193;SDS011;3638;48.820;9.244;2023-06-10T00:09:02;7.53;;;6.57;;
7193;SDS011;3638;48.820;9.244;2023-06-10T00:11:31;7.90;;;7.10;;
7193;SDS011;3638;48.820;9.244;2023-06-10T00:13:58;8.10;;;7.22;;
7193;SDS011;3638;48.820;9.244;2023-06-10T00:16:26;8.07;;;7.28;;
7193;SDS011;3638;48.820;9.244;2023-06-10T00:18:53;8.05;;;7.35;;
7193;SDS011;3638;48.820;9.244;2023-06-10T00:21:25;7.22;;;6.57;;
7193;SDS011;3638;48.820;9.244;2023-06-10T00:23:52;7.60;;;6.90;;
7193;SDS011;3638;48.820;9.244;2023-06-10T00:26:20;8.27;;;7.22;;
7193;SDS011;3638;48.820;9.244;2023-06-10T00:28:48;8.07;;;7.28;;
7193;SDS011;3638;48.820;9.244;2023-06-10T00:31:15;8.18;;;7.38;;
7193;SDS011;3638;48.820;9.244;2023-06-10T00:33:42;8.98;;;7.50;;
7193;SDS011;3638;48.820;9.244;2023-06-10T00:36:09;8.82;;;7.93;;
7193;SDS011;3638;48.820;9.244;2023-06-10T00:38:36;7.95;;;7.15;;
7193;SDS011;3638;48.820;9.244;2023-06-10T00:41:03;7.95;;;7.15;;
7193;SDS011;3638;48.820;9.244;2023-06-10T00:43:30;8.60;;;7.80;;
7193;SDS011;3638;48.820;9.244;2023-06-10T00:45:58;7.53;;;6.82;;
7193;SDS011;3638;48.820;9.244;2023-06-10T00:48:25;7.85;;;7.15;;
7193;SDS011;3638;48.820;9.244;2023-06-10T00:50:53;7.78;;;7.07;;
7193;SDS011;3638;48.820;9.244;2023-06-10T00:53:21;8.88;;;7.22;;
7193;SDS011;3638;48.820;9.244;2023-06-10T00:55:48;8.80;;;7.38;;
7193;SDS011;3638;48.820;9.244;2023-06-10T00:58:15;8.35;;;7.60;;
7193;SDS011;3638;48.820;9.244;2023-06-10T01:00:42;8.05;;;7.35;;
7193;SDS011;3638;48.820;9.244;2023-06-10T01:03:11;8.75;;;7.82;;
7193;SDS011;3638;48.820;9.244;2023-06-10T01:05:38;8.38;;;7.57;;
7193;SDS011;3638;48.820;9.244;2023-06-10T01:08:07;8.77;;;7.97;;
7193;SDS011;3638;48.820;9.244;2023-06-10T01:10:41;10.30;;;8.15;;
7193;SDS011;3638;48.820;9.244;2023-06-10T01:13:14;8.50;;;7.70;;
7193;SDS011;3638;48.820;9.244;2023-06-10T01:15:43;9.20;;;7.15;;
7193;SDS011;3638;48.820;9.244;2023-06-10T01:18:12;7.90;;;7.10;;
7193;SDS011;3638;48.820;9.244;2023-06-10T01:20:40;8.30;;;7.50;;
7193;SDS011;3638;48.820;9.244;2023-06-10T01:23:10;8.43;;;7.50;;
7193;SDS011;3638;48.820;9.244;2023-06-10T01:25:38;8.43;;;7.63;;
7193;SDS011;3638;48.820;9.244;2023-06-10T01:28:12;9.25;;;8.05;;
7193;SDS011;3638;48.820;9.244;2023-06-10T01:30:48;8.57;;;7.78;;
7193;SDS011;3638;48.820;9.244;2023-06-10T01:33:25;8.13;;;7.43;;
7193;SDS011;3638;48.820;9.244;2023-06-10T01:35:55;9.25;;;8.35;;
7193;SDS011;3638;48.820;9.244;2023-06-10T01:38:25;9.30;;;8.50;;
7193;SDS011;3638;48.820;9.244;2023-06-10T01:40:55;10.48;;;9.38;;
7193;SDS011;3638;48.820;9.244;2023-06-10T01:43:23;11.30;;;10.30;;
7193;SDS011;3638;48.820;9.244;2023-06-10T01:45:50;9.93;;;9.02;;
7193;SDS011;3638;48.820;9.244;2023-06-10T01:48:17;10.68;;;9.52;;
7193;SDS011;3638;48.820;9.244;2023-06-10T01:50:44;9.03;;;8.23;;
7193;SDS011;3638;48.820;9.244;2023-06-10T01:53:11;9.50;;;8.70;;
7193;SDS011;3638;48.820;9.244;2023-06-10T01:55:39;10.30;;;8.35;;
7193;SDS011;3638;48.820;9.244;2023-06-10T01:58:06;8.82;;;7.70;;
7193;SDS011;3638;48.820;9.244;2023-06-10T02:00:33;9.70;;;8.60;;
7193;SDS011;3638;48.820;9.244;2023-06-10T02:03:00;9.05;;;7.88;;
7193;SDS011;3638;48.820;9.244;2023-06-10T02:05:26;8.35;;;7.55;;
7193;SDS011;3638;48.820;9.244;2023-06-10T02:07:53;8.82;;;8.02;;
7193;SDS011;3638;48.820;9.244;2023-06-10T02:10:20;8.13;;;7.28;;
7193;SDS011;3638;48.820;9.244;2023-06-10T02:12:49;8.30;;;7.53;;
7193;SDS011;3638;48.820;9.244;2023-06-10T02:15:16;8.27;;;7.57;;
7193;SDS011;3638;48.820;9.244;2023-06-10T02:17:42;7.72;;;7.03;;
7193;SDS011;3638;48.820;9.244;2023-06-10T02:20:10;8.20;;;7.40;;
7193;SDS011;3638;48.820;9.244;2023-06-10T02:22:38;8.52;;;7.72;;
7193;SDS011;3638;48.820;9.244;2023-06-10T02:25:07;8.43;;;7.63;;
7193;SDS011;3638;48.820;9.244;2023-06-10T02:27:35;9.48;;;8.15;;
7193;SDS011;3638;48.820;9.244;2023-06-10T02:30:03;9.03;;;8.20;;
7193;SDS011;3638;48.820;9.244;2023-06-10T02:32:31;9.13;;;8.23;;
7193;SDS011;3638;48.820;9.244;2023-06-10T02:34:58;8.18;;;7.38;;
7193;SDS011;3638;48.820;9.244;2023-06-10T02:37:25;9.70;;;8.70;;
7193;SDS011;3638;48.820;9.244;2023-06-10T02:39:52;8.85;;;7.95;;
7193;SDS011;3638;48.820;9.244;2023-06-10T02:42:19;9.50;;;8.47;;
7193;SDS011;3638;48.820;9.244;2023-06-10T02:44:45;9.70;;;8.73;;
7193;SDS011;3638;48.820;9.244;2023-06-10T02:47:14;9.20;;;8.20;;
7193;SDS011;3638;48.820;9.244;2023-06-10T02:49:40;9.63;;;8.67;;
7193;SDS011;3638;48.820;9.244;2023-06-10T02:52:07;10.13;;;8.77;;
7193;SDS011;3638;48.820;9.244;2023-06-10T02:54:36;12.67;;;8.20;;
7193;SDS011;3638;48.820;9.244;2023-06-10T02:57:03;8.95;;;8.15;;
7193;SDS011;3638;48.820;9.244;2023-06-10T02:59:31;9.30;;;8.40;;
7193;SDS011;3638;48.820;9.244;2023-06-10T03:01:58;9.63;;;8.80;;
7193;SDS011;3638;48.820;9.244;2023-06-10T03:04:27;8.40;;;7.60;;
7193;SDS011;3638;48.820;9.244;2023-06-10T03:06:55;11.20;;;8.85;;
7193;SDS011;3638;48.820;9.244;2023-06-10T03:09:22;9.13;;;8.23;;
7193;SDS011;3638;48.820;9.244;2023-06-10T03:11:49;10.10;;;9.05;;
7193;SDS011;3638;48.820;9.244;2023-06-10T03:14:16;9.77;;;8.80;;
7193;SDS011;3638;48.820;9.244;2023-06-10T03:16:43;11.60;;;8.40;;
7193;SDS011;3638;48.820;9.244;2023-06-10T03:19:10;10.15;;;8.43;;
7193;SDS011;3638;48.820;9.244;2023-06-10T03:21:38;8.63;;;7.82;;
7193;SDS011;3638;48.820;9.244;2023-06-10T03:24:06;8.13;;;7.33;;
7193;SDS011;3638;48.820;9.244;2023-06-10T03:26:33;8.50;;;7.70;;
7193;SDS011;3638;48.820;9.244;2023-06-10T03:29:00;9.55;;;7.43;;
7193;SDS011;3638;48.820;9.244;2023-06-10T03:31:27;7.80;;;7.10;;
7193;SDS011;3638;48.820;9.244;2023-06-10T03:33:54;7.70;;;6.90;;
7193;SDS011;3638;48.820;9.244;2023-06-10T03:36:21;8.20;;;7.30;;
7193;SDS011;3638;48.820;9.244;2023-06-10T03:38:49;8.57;;;7.70;;
7193;SDS011;3638;48.820;9.244;2023-06-10T03:41:16;10.57;;;7.20;;
7193;SDS011;3638;48.820;9.244;2023-06-10T03:43:43;7.85;;;7.18;;
7193;SDS011;3638;48.820;9.244;2023-06-10T03:46:10;7.23;;;6.57;;
7193;SDS011;3638;48.820;9.244;2023-06-10T03:48:38;8.15;;;7.25;;
7193;SDS011;3638;48.820;9.244;2023-06-10T03:51:06;7.70;;;7.00;;
7193;SDS011;3638;48.820;9.244;2023-06-10T03:53:32;7.53;;;6.83;;
7193;SDS011;3638;48.820;9.244;2023-06-10T03:56:01;7.65;;;6.95;;
7193;SDS011;3638;48.820;9.244;2023-06-10T03:58:27;6.75;;;6.15;;
7193;SDS011;3638;48.820;9.244;2023-06-10T04:00:54;8.05;;;7.20;;
7193;SDS011;3638;48.820;9.244;2023-06-10T04:03:21;8.52;;;7.63;;
7193;SDS011;3638;48.820;9.244;2023-06-10T04:05:48;9.52;;;7.05;;
7193;SDS011;3638;48.820;9.244;2023-06-10T04:08:16;7.72;;;6.50;;
7193;SDS011;3638;48.820;9.244;2023-06-10T04:10:43;6.88;;;6.25;;
7193;SDS011;3638;48.820;9.244;2023-06-10T04:13:11;7.43;;;6.63;;
7193;SDS011;3638;48.820;9.244;2023-06-10T04:15:39;7.35;;;6.65;;
7193;SDS011;3638;48.820;9.244;2023-06-10T04:18:06;7.07;;;6.38;;
7193;SDS011;3638;48.820;9.244;2023-06-10T04:20:33;7.30;;;6.35;;
7193;SDS011;3638;48.820;9.244;2023-06-10T04:23:00;7.00;;;6.30;;
7193;SDS011;3638;48.820;9.244;2023-06-10T04:25:27;6.95;;;6.25;;
7193;SDS011;3638;48.820;9.244;2023-06-10T04:27:54;7.03;;;6.32;;
7193;SDS011;3638;48.820;9.244;2023-06-10T04:30:22;7.45;;;6.63;;
7193;SDS011;3638;48.820;9.244;2023-06-10T04:32:49;7.88;;;6.13;;
7193;SDS011;3638;48.820;9.244;2023-06-10T04:35:17;7.50;;;6.80;;
7193;SDS011;3638;48.820;9.244;2023-06-10T04:37:43;6.40;;;5.75;;
7193;SDS011;3638;48.820;9.244;2023-06-10T04:40:10;7.82;;;6.22;;
7193;SDS011;3638;48.820;9.244;2023-06-10T04:42:37;6.75;;;6.15;;
7193;SDS011;3638;48.820;9.244;2023-06-10T04:45:05;6.57;;;5.97;;
7193;SDS011;3638;48.820;9.244;2023-06-10T04:47:34;6.15;;;5.55;;
7193;SDS011;3638;48.820;9.244;2023-06-10T04:50:01;6.10;;;5.60;;
7193;SDS011;3638;48.820;9.244;2023-06-10T04:52:30;6.65;;;6.05;;
7193;SDS011;3638;48.820;9.244;2023-06-10T04:54:58;6.68;;;5.53;;
7193;SDS011;3638;48.820;9.244;2023-06-10T04:57:25;6.20;;;5.60;;
7193;SDS011;3638;48.820;9.244;2023-06-10T04:59:52;6.93;;;5.28;;
7193;SDS011;3638;48.820;9.244;2023-06-10T05:02:19;6.15;;;5.53;;
7193;SDS011;3638;48.820;9.244;2023-06-10T05:04:47;6.00;;;5.40;;
7193;SDS011;3638;48.820;9.244;2023-06-10T05:07:14;6.55;;;5.20;;
7193;SDS011;3638;48.820;9.244;2023-06-10T05:09:41;6.35;;;5.75;;
7193;SDS011;3638;48.820;9.244;2023-06-10T05:12:08;6.00;;;5.40;;
7193;SDS011;3638;48.820;9.244;2023-06-10T05:14:35;5.57;;;5.07;;
7193;SDS011;3638;48.820;9.244;2023-06-10T05:17:02;6.22;;;5.60;;
7193;SDS011;3638;48.820;9.244;2023-06-10T05:19:30;6.45;;;5.75;;
7193;SDS011;3638;48.820;9.244;2023-06-10T05:21:59;6.35;;;5.72;;
7193;SDS011;3638;48.820;9.244;2023-06-10T05:24:25;6.05;;;5.28;;
7193;SDS011;3638;48.820;9.244;2023-06-10T05:26:52;7.22;;;5.22;;
7193;SDS011;3638;48.820;9.244;2023-06-10T05:29:19;5.65;;;5.15;;
7193;SDS011;3638;48.820;9.244;2023-06-10T05:31:46;5.75;;;5.25;;
7193;SDS011;3638;48.820;9.244;2023-06-10T05:34:13;6.80;;;5.30;;
7193;SDS011;3638;48.820;9.244;2023-06-10T05:36:39;5.72;;;5.22;;
7193;SDS011;3638;48.820;9.244;2023-06-10T05:39:08;5.50;;;5.00;;
7193;SDS011;3638;48.820;9.244;2023-06-10T05:41:36;5.53;;;5.03;;
7193;SDS011;3638;48.820;9.244;2023-06-10T05:44:03;5.88;;;5.38;;
7193;SDS011;3638;48.820;9.244;2023-06-10T05:46:30;5.82;;;5.32;;
7193;SDS011;3638;48.820;9.244;2023-06-10T05:48:57;6.10;;;5.35;;
7193;SDS011;3638;48.820;9.244;2023-06-10T05:51:24;5.63;;;5.07;;
7193;SDS011;3638;48.820;9.244;2023-06-10T05:53:52;5.93;;;5.32;;
7193;SDS011;3638;48.820;9.244;2023-06-10T05:56:21;6.00;;;5.22;;
7193;SDS011;3638;48.820;9.244;2023-06-10T05:58:48;6.03;;;5.40;;
7193;SDS011;3638;48.820;9.244;2023-06-10T06:01:15;5.50;;;5.00;;
7193;SDS011;3638;48.820;9.244;2023-06-10T06:03:42;6.03;;;5.35;;
7193;SDS011;3638;48.820;9.244;2023-06-10T06:06:09;5.97;;;5.30;;
7193;SDS011;3638;48.820;9.244;2023-06-10T06:08:35;6.60;;;5.28;;
7193;SDS011;3638;48.820;9.244;2023-06-10T06:11:02;5.85;;;5.25;;
7193;SDS011;3638;48.820;9.244;2023-06-10T06:13:30;6.43;;;4.88;;
7193;SDS011;3638;48.820;9.244;2023-06-10T06:15:57;5.20;;;4.70;;
7193;SDS011;3638;48.820;9.244;2023-06-10T06:18:24;5.32;;;4.70;;
7193;SDS011;3638;48.820;9.244;2023-06-10T06:20:51;5.85;;;4.90;;
7193;SDS011;3638;48.820;9.244;2023-06-10T06:23:18;5.43;;;4.75;;
7193;SDS011;3638;48.820;9.244;2023-06-10T06:25:44;4.90;;;4.47;;
7193;SDS011;3638;48.820;9.244;2023-06-10T06:28:11;5.78;;;5.28;;
7193;SDS011;3638;48.820;9.244;2023-06-10T06:30:39;5.15;;;4.65;;
7193;SDS011;3638;48.820;9.244;2023-06-10T06:33:06;5.40;;;4.90;;
7193;SDS011;3638;48.820;9.244;2023-06-10T06:35:33;5.43;;;4.93;;
7193;SDS011;3638;48.820;9.244;2023-06-10T06:38:00;5.13;;;4.72;;
7193;SDS011;3638;48.820;9.244;2023-06-10T06:40:29;5.07;;;4.57;;
7193;SDS011;3638;48.820;9.244;2023-06-10T06:42:56;4.93;;;4.43;;
7193;SDS011;3638;48.820;9.244;2023-06-10T06:45:22;5.72;;;5.22;;
7193;SDS011;3638;48.820;9.244;2023-06-10T06:47:51;5.03;;;4.63;;
7193;SDS011;3638;48.820;9.244;2023-06-10T06:50:17;5.32;;;4.78;;
7193;SDS011;3638;48.820;9.244;2023-06-10T06:52:45;5.35;;;4.88;;
7193;SDS011;3638;48.820;9.244;2023-06-10T06:55:12;4.90;;;4.50;;
7193;SDS011;3638;48.820;9.244;2023-06-10T06:57:39;5.57;;;5.07;;
7193;SDS011;3638;48.820;9.244;2023-06-10T07:00:06;5.00;;;4.50;;
7193;SDS011;3638;48.820;9.244;2023-06-10T07:02:34;5.10;;;4.38;;
7193;SDS011;3638;48.820;9.244;2023-06-10T07:05:03;4.93;;;4.50;;
7193;SDS011;3638;48.820;9.244;2023-06-10T07:07:30;6.05;;;5.07;;
7193;SDS011;3638;48.820;9.244;2023-06-10T07:09:57;4.65;;;4.25;;
7193;SDS011;3638;48.820;9.244;2023-06-10T07:12:24;4.72;;;4.30;;
7193;SDS011;3638;48.820;9.244;2023-06-10T07:14:51;4.72;;;4.22;;
7193;SDS011;3638;48.820;9.244;2023-06-10T07:17:18;4.85;;;4.43;;
7193;SDS011;3638;48.820;9.244;2023-06-10T07:19:45;5.32;;;4.82;;
7193;SDS011;3638;48.820;9.244;2023-06-10T07:22:13;5.05;;;4.65;;
7193;SDS011;3638;48.820;9.244;2023-06-10T07:24:40;5.78;;;4.60;;
7193;SDS011;3638;48.820;9.244;2023-06-10T07:27:07;6.05;;;4.32;;
7193;SDS011;3638;48.820;9.244;2023-06-10T07:29:35;6.97;;;4.70;;
7193;SDS011;3638;48.820;9.244;2023-06-10T07:32:02;5.50;;;4.72;;
7193;SDS011;3638;48.820;9.244;2023-06-10T07:34:29;5.32;;;4.63;;
7193;SDS011;3638;48.820;9.244;2023-06-10T07:36:56;5.65;;;5.05;;
7193;SDS011;3638;48.820;9.244;2023-06-10T07:39:24;5.07;;;4.50;;
7193;SDS011;3638;48.820;9.244;2023-06-10T07:41:51;5.53;;;4.32;;
7193;SDS011;3638;48.820;9.244;2023-06-10T07:44:21;4.18;;;3.78;;
7193;SDS011;3638;48.820;9.244;2023-06-10T07:46:48;4.70;;;4.30;;
7193;SDS011;3638;48.820;9.244;2023-06-10T07:49:15;4.72;;;4.30;;
7193;SDS011;3638;48.820;9.244;2023-06-10T07:51:42;5.55;;;4.68;;
7193;SDS011;3638;48.820;9.244;2023-06-10T07:54:09;4.32;;;4.03;;
7193;SDS011;3638;48.820;9.244;2023-06-10T07:56:38;5.15;;;4.28;;
7193;SDS011;3638;48.820;9.244;2023-06-10T07:59:05;4.50;;;4.10;;
7193;SDS011;3638;48.820;9.244;2023-06-10T08:01:32;4.75;;;4.28;;
7193;SDS011;3638;48.820;9.244;2023-06-10T08:04:00;5.22;;;4.82;;
7193;SDS011;3638;48.820;9.244;2023-06-10T08:06:27;5.20;;;4.53;;
7193;SDS011;3638;48.820;9.244;2023-06-10T08:08:54;5.13;;;4.63;;
7193;SDS011;3638;48.820;9.244;2023-06-10T08:11:21;5.72;;;4.63;;
7193;SDS011;3638;48.820;9.244;2023-06-10T08:13:49;5.35;;;4.90;;
7193;SDS011;3638;48.820;9.244;2023-06-10T08:16:16;5.13;;;4.63;;
7193;SDS011;3638;48.820;9.244;2023-06-10T08:18:43;5.45;;;4.95;;
7193;SDS011;3638;48.820;9.244;2023-06-10T08:21:10;6.78;;;5.63;;
7193;SDS011;3638;48.820;9.244;2023-06-10T08:23:37;6.35;;;5.70;;
7193;SDS011;3638;48.820;9.244;2023-06-10T08:26:04;6.97;;;4.80;;
7193;SDS011;3638;48.820;9.244;2023-06-10T08:28:31;5.03;;;4.53;;
7193;SDS011;3638;48.820;9.244;2023-06-10T08:30:59;8.43;;;5.63;;
7193;SDS011;3638;48.820;9.244;2023-06-10T08:33:26;5.40;;;4.90;;
7193;SDS011;3638;48.820;9.244;2023-06-10T08:35:52;8.77;;;5.20;;
7193;SDS011;3638;48.820;9.244;2023-06-10T08:38:19;5.72;;;5.20;;
7193;SDS011;3638;48.820;9.244;2023-06-10T08:40:46;6.18;;;5.57;;
7193;SDS011;3638;48.820;9.244;2023-06-10T08:43:16;6.15;;;5.30;;
7193;SDS011;3638;48.820;9.244;2023-06-10T08:45:48;5.65;;;5.05;;
7193;SDS011;3638;48.820;9.244;2023-06-10T08:48:17;5.32;;;4.82;;
7193;SDS011;3638;48.820;9.244;2023-06-10T08:50:46;5.43;;;4.63;;
7193;SDS011;3638;48.820;9.244;2023-06-10T08:53:17;5.03;;;4.38;;
7193;SDS011;3638;48.820;9.244;2023-06-10T08:55:46;6.07;;;5.35;;
7193;SDS011;3638;48.820;9.244;2023-06-10T08:58:18;5.35;;;4.72;;
7193;SDS011;3638;48.820;9.244;2023-06-10T09:00:45;4.95;;;4.45;;
7193;SDS011;3638;48.820;9.244;2023-06-10T09:03:12;5.53;;;5.03;;
7193;SDS011;3638;48.820;9.244;2023-06-10T09:05:41;4.97;;;4.47;;
7193;SDS011;3638;48.820;9.244;2023-06-10T09:08:08;5.15;;;4.65;;
7193;SDS011;3638;48.820;9.244;2023-06-10T09:10:36;5.47;;;4.95;;
7193;SDS011;3638;48.820;9.244;2023-06-10T09:13:02;6.43;;;4.53;;
7193;SDS011;3638;48.820;9.244;2023-06-10T09:15:30;6.03;;;5.15;;
7193;SDS011;3638;48.820;9.244;2023-06-10T09:17:56;4.70;;;4.30;;
7193;SDS011;3638;48.820;9.244;2023-06-10T09:20:24;5.10;;;4.60;;
7193;SDS011;3638;48.820;9.244;2023-06-10T09:22:52;5.00;;;4.60;;
7193;SDS011;3638;48.820;9.244;2023-06-10T09:25:20;5.30;;;4.60;;
7193;SDS011;3638;48.820;9.244;2023-06-10T09:28:03;5.07;;;4.57;;
7193;SDS011;3638;48.820;9.244;2023-06-10T09:30:30;5.15;;;4.72;;
7193;SDS011;3638;48.820;9.244;2023-06-10T09:32:59;8.43;;;5.65;;
7193;SDS011;3638;48.820;9.244;2023-06-10T09:35:28;5.25;;;4.75;;
7193;SDS011;3638;48.820;9.244;2023-06-10T09:37:58;5.47;;;4.70;;
7193;SDS011;3638;48.820;9.244;2023-06-10T09:40:27;6.22;;;4.88;;
7193;SDS011;3638;48.820;9.244;2023-06-10T09:42:55;6.30;;;4.57;;
7193;SDS011;3638;48.820;9.244;2023-06-10T09:45:24;4.57;;;4.18;;
7193;SDS011;3638;48.820;9.244;2023-06-10T09:47:56;4.95;;;4.47;;
7193;SDS011;3638;48.820;9.244;2023-06-10T09:50:23;5.65;;;4.40;;
7193;SDS011;3638;48.820;9.244;2023-06-10T09:52:50;5.97;;;4.57;;
7193;SDS011;3638;48.820;9.244;2023-06-10T09:55:19;4.75;;;4.35;;
7193;SDS011;3638;48.820;9.244;2023-06-10T09:57:47;5.20;;;4.70;;
7193;SDS011;3638;48.820;9.244;2023-06-10T10:00:16;4.43;;;4.03;;
7193;SDS011;3638;48.820;9.244;2023-06-10T10:02:47;5.28;;;4.78;;
7193;SDS011;3638;48.820;9.244;2023-06-10T10:05:16;5.05;;;4.55;;
7193;SDS011;3638;48.820;9.244;2023-06-10T10:07:44;4.93;;;4.13;;
7193;SDS011;3638;48.820;9.244;2023-06-10T10:10:12;5.03;;;4.43;;
7193;SDS011;3638;48.820;9.244;2023-06-10T10:12:43;5.50;;;3.92;;
7193;SDS011;3638;48.820;9.244;2023-06-10T10:15:13;4.68;;;4.18;;
7193;SDS011;3638;48.820;9.244;2023-06-10T10:17:44;4.72;;;4.25;;
7193;SDS011;3638;48.820;9.244;2023-06-10T10:20:16;5.13;;;4.47;;
7193;SDS011;3638;48.820;9.244;2023-06-10T10:22:47;11.43;;;5.25;;
7193;SDS011;3638;48.820;9.244;2023-06-10T10:25:21;5.20;;;4.70;;
7193;SDS011;3638;48.820;9.244;2023-06-10T10:27:56;5.38;;;4.57;;
7193;SDS011;3638;48.820;9.244;2023-06-10T10:30:28;7.03;;;5.10;;
7193;SDS011;3638;48.820;9.244;2023-06-10T10:33:03;5.88;;;4.43;;
7193;SDS011;3638;48.820;9.244;2023-06-10T10:35:34;4.72;;;4.25;;
7193;SDS011;3638;48.820;9.244;2023-06-10T10:38:02;5.22;;;4.72;;
7193;SDS011;3638;48.820;9.244;2023-06-10T10:40:30;5.75;;;5.07;;
7193;SDS011;3638;48.820;9.244;2023-06-10T10:42:59;5.38;;;4.68;;
7193;SDS011;3638;48.820;9.244;2023-06-10T10:45:27;5.50;;;4.68;;
7193;SDS011;3638;48.820;9.244;2023-06-10T10:47:55;5.05;;;4.55;;
7193;SDS011;3638;48.820;9.244;2023-06-10T10:50:22;7.15;;;6.15;;
7193;SDS011;3638;48.820;9.244;2023-06-10T10:52:53;7.07;;;5.70;;
7193;SDS011;3638;48.820;9.244;2023-06-10T10:55:22;5.45;;;4.72;;
7193;SDS011;3638;48.820;9.244;2023-06-10T10:57:53;5.28;;;4.78;;
7193;SDS011;3638;48.820;9.244;2023-06-10T11:00:29;5.10;;;4.70;;
7193;SDS011;3638;48.820;9.244;2023-06-10T11:02:58;6.20;;;4.60;;
7193;SDS011;3638;48.820;9.244;2023-06-10T11:05:36;4.70;;;4.30;;
7193;SDS011;3638;48.820;9.244;2023-06-10T11:08:06;4.80;;;4.30;;
7193;SDS011;3638;48.820;9.244;2023-06-10T11:10:35;5.72;;;4.78;;
7193;SDS011;3638;48.820;9.244;2023-06-10T11:13:06;4.97;;;4.28;;
7193;SDS011;3638;48.820;9.244;2023-06-10T11:15:39;5.20;;;4.70;;
7193;SDS011;3638;48.820;9.244;2023-06-10T11:18:12;4.90;;;4.25;;
7193;SDS011;3638;48.820;9.244;2023-06-10T11:20:51;4.55;;;4.15;;
7193;SDS011;3638;48.820;9.244;2023-06-10T11:23:24;6.35;;;4.70;;
7193;SDS011;3638;48.820;9.244;2023-06-10T11:26:08;4.70;;;4.30;;
7193;SDS011;3638;48.820;9.244;2023-06-10T11:28:40;4.38;;;4.07;;
7193;SDS011;3638;48.820;9.244;2023-06-10T11:31:09;5.53;;;5.03;;
7193;SDS011;3638;48.820;9.244;2023-06-10T11:33:46;4.95;;;4.55;;
7193;SDS011;3638;48.820;9.244;2023-06-10T11:36:14;4.47;;;4.00;;
7193;SDS011;3638;48.820;9.244;2023-06-10T11:38:41;4.43;;;4.10;;
7193;SDS011;3638;48.820;9.244;2023-06-10T11:41:08;4.60;;;4.20;;
7193;SDS011;3638;48.820;9.244;2023-06-10T11:43:36;5.18;;;4.15;;
7193;SDS011;3638;48.820;9.244;2023-06-10T11:46:03;4.45;;;4.05;;
7193;SDS011;3638;48.820;9.244;2023-06-10T11:48:34;4.40;;;4.00;;
7193;SDS011;3638;48.820;9.244;2023-06-10T11:51:04;4.82;;;4.43;;
7193;SDS011;3638;48.820;9.244;2023-06-10T11:53:32;5.03;;;4.53;;
7193;SDS011;3638;48.820;9.244;2023-06-10T11:55:59;5.97;;;4.32;;
7193;SDS011;3638;48.820;9.244;2023-06-10T11:58:26;4.47;;;4.07;;
7193;SDS011;3638;48.820;9.244;2023-06-10T12:00:54;4.72;;;4.32;;
7193;SDS011;3638;48.820;9.244;2023-06-10T12:03:23;5.60;;;4.00;;
7193;SDS011;3638;48.820;9.244;2023-06-10T12:05:58;4.30;;;3.90;;
7193;SDS011;3638;48.820;9.244;2023-06-10T12:08:26;4.97;;;3.97;;
7193;SDS011;3638;48.820;9.244;2023-06-10T12:10:53;4.40;;;4.00;;
7193;SDS011;3638;48.820;9.244;2023-06-10T12:13:21;4.57;;;4.18;;
7193;SDS011;3638;48.820;9.244;2023-06-10T12:15:49;4.35;;;3.95;;
7193;SDS011;3638;48.820;9.244;2023-06-10T12:18:16;4.55;;;3.85;;
7193;SDS011;3638;48.820;9.244;2023-06-10T12:20:43;4.50;;;3.83;;
7193;SDS011;3638;48.820;9.244;2023-06-10T12:23:12;4.07;;;3.67;;
7193;SDS011;3638;48.820;9.244;2023-06-10T12:25:48;4.00;;;3.70;;
7193;SDS011;3638;48.820;9.244;2023-06-10T12:28:20;4.25;;;3.85;;
7193;SDS011;3638;48.820;9.244;2023-06-10T12:30:47;6.30;;;4.15;;
7193;SDS011;3638;48.820;9.244;2023-06-10T12:33:18;4.03;;;3.72;;
7193;SDS011;3638;48.820;9.244;2023-06-10T12:35:49;4.03;;;3.72;;
7193;SDS011;3638;48.820;9.244;2023-06-10T12:38:22;3.72;;;3.42;;
7193;SDS011;3638;48.820;9.244;2023-06-10T12:40:52;4.63;;;4.03;;
7193;SDS011;3638;48.820;9.244;2023-06-10T12:43:21;4.35;;;3.92;;
7193;SDS011;3638;48.820;9.244;2023-06-10T12:45:49;4.28;;;3.90;;
7193;SDS011;3638;48.820;9.244;2023-06-10T12:48:17;5.43;;;4.07;;
7193;SDS011;3638;48.820;9.244;2023-06-10T12:50:46;4.18;;;3.72;;
7193;SDS011;3638;48.820;9.244;2023-06-10T12:53:18;4.70;;;4.15;;
7193;SDS011;3638;48.820;9.244;2023-06-10T12:55:47;4.32;;;3.92;;
7193;SDS011;3638;48.820;9.244;2023-06-10T12:58:14;4.05;;;3.55;;
7193;SDS011;3638;48.820;9.244;2023-06-10T13:00:41;5.13;;;3.85;;
7193;SDS011;3638;48.820;9.244;2023-06-10T13:03:08;3.80;;;3.47;;
7193;SDS011;3638;48.820;9.244;2023-06-10T13:05:36;5.20;;;4.00;;
7193;SDS011;3638;48.820;9.244;2023-06-10T13:08:03;4.10;;;3.70;;
7193;SDS011;3638;48.820;9.244;2023-06-10T13:10:31;3.88;;;3.50;;
7193;SDS011;3638;48.820;9.244;2023-06-10T13:12:59;4.20;;;3.88;;
7193;SDS011;3638;48.820;9.244;2023-06-10T13:15:26;4.35;;;3.95;;
7193;SDS011;3638;48.820;9.244;2023-06-10T13:17:54;3.92;;;3.63;;
7193;SDS011;3638;48.820;9.244;2023-06-10T13:20:20;4.45;;;3.70;;
7193;SDS011;3638;48.820;9.244;2023-06-10T13:22:48;4.22;;;3.53;;
7193;SDS011;3638;48.820;9.244;2023-06-10T13:25:14;4.43;;;4.03;;
7193;SDS011;3638;48.820;9.244;2023-06-10T13:27:41;3.47;;;3.17;;
7193;SDS011;3638;48.820;9.244;2023-06-10T13:30:10;4.05;;;3.75;;
7193;SDS011;3638;48.820;9.244;2023-06-10T13:32:38;5.05;;;3.70;;
7193;SDS011;3638;48.820;9.244;2023-06-10T13:35:05;3.67;;;3.38;;
7193;SDS011;3638;48.820;9.244;2023-06-10T13:37:33;5.20;;;4.70;;
7193;SDS011;3638;48.820;9.244;2023-06-10T13:40:01;4.18;;;3.80;;
7193;SDS011;3638;48.820;9.244;2023-06-10T13:42:29;4.30;;;3.90;;
7193;SDS011;3638;48.820;9.244;2023-06-10T13:44:56;3.83;;;3.53;;
7193;SDS011;3638;48.820;9.244;2023-06-10T13:47:24;4.30;;;3.90;;
7193;SDS011;3638;48.820;9.244;2023-06-10T13:49:51;4.22;;;3.83;;
7193;SDS011;3638;48.820;9.244;2023-06-10T13:52:18;4.82;;;3.47;;
7193;SDS011;3638;48.820;9.244;2023-06-10T13:54:45;3.90;;;3.50;;
7193;SDS011;3638;48.820;9.244;2023-06-10T13:57:12;3.90;;;3.60;;
7193;SDS011;3638;48.820;9.244;2023-06-10T13:59:39;3.50;;;3.20;;
7193;SDS011;3638;48.820;9.244;2023-06-10T14:02:07;4.38;;;3.97;;
7193;SDS011;3638;48.820;9.244;2023-06-10T14:04:35;4.85;;;4.22;;
7193;SDS011;3638;48.820;9.244;2023-06-10T14:07:02;8.65;;;7.75;;
7193;SDS011;3638;48.820;9.244;2023-06-10T14:09:30;5.25;;;3.70;;
7193;SDS011;3638;48.820;9.244;2023-06-10T14:11:56;3.90;;;3.60;;
7193;SDS011;3638;48.820;9.244;2023-06-10T14:14:24;7.00;;;5.00;;
7193;SDS011;3638;48.820;9.244;2023-06-10T14:16:51;4.65;;;4.03;;
7193;SDS011;3638;48.820;9.244;2023-06-10T14:19:17;7.57;;;3.75;;
7193;SDS011;3638;48.820;9.244;2023-06-10T14:21:46;4.43;;;4.00;;
7193;SDS011;3638;48.820;9.244;2023-06-10T14:24:14;4.28;;;3.90;;
7193;SDS011;3638;48.820;9.244;2023-06-10T14:26:41;4.35;;;3.97;;
7193;SDS011;3638;48.820;9.244;2023-06-10T14:29:08;3.92;;;3.63;;
7193;SDS011;3638;48.820;9.244;2023-06-10T14:31:35;4.65;;;4.22;;
7193;SDS011;3638;48.820;9.244;2023-06-10T14:34:02;4.70;;;4.30;;
7193;SDS011;3638;48.820;9.244;2023-06-10T14:36:30;4.10;;;3.80;;
7193;SDS011;3638;48.820;9.244;2023-06-10T14:38:59;4.63;;;4.22;;
7193;SDS011;3638;48.820;9.244;2023-06-10T14:41:27;5.57;;;5.07;;
7193;SDS011;3638;48.820;9.244;2023-06-10T14:43:53;4.80;;;4.30;;
7193;SDS011;3638;48.820;9.244;2023-06-10T14:46:20;4.75;;;4.32;;
7193;SDS011;3638;48.820;9.244;2023-06-10T14:48:47;4.13;;;3.83;;
7193;SDS011;3638;48.820;9.244;2023-06-10T14:51:16;4.30;;;3.90;;
7193;SDS011;3638;48.820;9.244;2023-06-10T14:53:43;4.90;;;4.32;;
7193;SDS011;3638;48.820;9.244;2023-06-10T14:56:11;5.28;;;4.88;;
7193;SDS011;3638;48.820;9.244;2023-06-10T14:58:38;6.72;;;4.30;;
7193;SDS011;3638;48.820;9.244;2023-06-10T15:01:05;6.55;;;5.00;;
7193;SDS011;3638;48.820;9.244;2023-06-10T15:03:32;5.13;;;4.40;;
7193;SDS011;3638;48.820;9.244;2023-06-10T15:05:59;5.25;;;4.40;;
7193;SDS011;3638;48.820;9.244;2023-06-10T15:08:26;4.85;;;4.45;;
7193;SDS011;3638;48.820;9.244;2023-06-10T15:10:53;4.93;;;4.50;;
7193;SDS011;3638;48.820;9.244;2023-06-10T15:13:23;5.95;;;4.70;;
7193;SDS011;3638;48.820;9.244;2023-06-10T15:15:50;5.20;;;4.80;;
7193;SDS011;3638;48.820;9.244;2023-06-10T15:18:17;4.10;;;3.80;;
7193;SDS011;3638;48.820;9.244;2023-06-10T15:20:44;5.70;;;4.28;;